48ème Rallye National de la Giraglia
Championnat de France des Rallyes 2ème Division
1 1 TROJANI Pascal/VESPERINI Jean-Noel Citroën Ds3 A 8W 13:55,0 99km/h
2 2 NAVARRA Francois-Frederic/TYRAN Mathieu Ford Fiesta A 8W 14:04,8 +00:09,8 +00:09,8
3 7 MANZAGOL Jean-Marc/PATRONE Etienne Ford Fiesta R 5 14:10,8 +00:15,8 +00:06,0
4 6 LEANDRI Jean-Mathieu/GORGUILO Anthony Skoda Fabia R 5 14:11,7 +00:16,7 +00:00,9
5 3 ALERINI Paul/VERDURI Olivier Ford Fiesta A 8W 14:12,5 +00:17,5 +00:00,8
6 60 FRAYMOUTH François/FELICELLI Romain Peugeot 208 R 2 15:07,4 +01:12,4 +00:54,9
7 5 SIMONETTI Robert/SIMONETTI Celia Citroën Ds3 A 8W 15:09,0 +01:14,0 +00:01,6
8 32 FLORI Jean-Pierre/GARCIA Dann Renault Clio Ragnotti F2 14 15:13,7 +01:18,7 +00:04,7
9 36 JAUMON Lionel/ROQUE Cyril Renault Clio 3 Rs F2 14 15:19,3 +01:24,3 +00:05,6
10 19 DEFENDINI Romain/GHERARDI Gérard Citroën Ds3 R 3 15:20,2 +01:25,2 +00:00,9
11 9 POLIDORI Frédéric/GOIA Laurent Ford Fiesta R 5 15:24,3 +01:29,3 +00:04,1
12 24 VILLARET Benjamin/OBRECHT Justine Renault Clio R3 R 3 15:26,3 +01:31,3 +00:02,0
13 77 GANDOLFI Anthony/FINOCCHIARO Sébastien Citroën Saxo F2 13 15:27,2 +01:32,2 +00:00,9
14 15 ROGNONI Daniel/BEAULIEU Noelise Porsche 911 GT 10 15:33,4 +01:38,4 +00:06,2
15 61 MICHELI Hugo/RAFFAELLI Yoann Peugeot 208 R 2 15:36,5 +01:41,5 +00:03,1
16 63 AGOSTINI Lucien/AGOSTINI Guillaume Peugeot 208 R 2B 15:37,9 +01:42,9 +00:01,4
17 64 MAESTRACCI François/CASANOVA Sébastien Peugeot 208 R 2 15:39,3 +01:44,3 +00:01,4
18 33 CAVILLAC Franck/CORSI Frédéric Renault Clio Rs F2 14 15:39,5 +01:44,5 +00:00,2
19 10 VILLORESI Christian/GIUDICELLI Cyril Skoda Fabia R 5 15:40,2 +01:45,2 +00:00,7
20 21 CHIARONI Pascal/SANTINI Cédric Renault Clio R3 Max R 3 15:40,9 +01:45,9 +00:00,7
21 27 ROSSI Yannick/VOLPEI Baptiste Mitsubishi Evolution 9 N 4 15:41,7 +01:46,7 +00:00,8
22 38 RICO Michel/RICO Benjamin BMW --- F2 14 15:44,0 +01:49,0 +00:02,3
23 54 COMOLE Lionel/DINI Gilbert Peugeot 106 S16 A 6K 15:46,8 +01:51,8 +00:02,8
24 16 BONEL Antony/MANENT Roselyne Opel Speedster Turbo GT 10 15:53,6 +01:58,6 +00:06,8
25 26 BORT Julien/ZAVARSKY Alexy Renault Clio R3 Max R 3 15:54,4 +01:59,4 +00:00,8
26 66 ANFRIANI Paul-Etienne/RICOVERI Mallaury Citroën C2 R 2B 15:58,8 +02:03,8 +00:04,4
27 57 BRAZ Paulo/SCICOLONE Edouard Citroën C2 FA 6K 16:00,4 +02:05,4 +00:01,6
28 73 ARAGNEAU Philippe/MAZOTTI Francis Renault Clio FN 3 16:00,7 +02:05,7 +00:00,3
29 31 GREGORY Ugo/GREGORY Coralie Renault Clio Rs F2 14 16:01,6 +02:06,6 +00:00,9
30 79 FRANCISCI Yannick/VINCIGUERRA Lisa-Marie Peugeot 106 S16 F2 13 16:02,5 +02:07,5 +00:00,9
31 34 VANGIONI Francesco/THIERS Julien Renault Clio 3 Rs F2 14 16:03,8 +02:08,8 +00:01,3
32 49 FIGARI Luca/FIGARI Morgan Renault Clio Super 1600 FA 6K 16:13,8 +02:18,8 +00:10,0
33 4 MICHELI Joseph/MICHELI Luna-Stella Ford Fiesta A 8W 16:13,9 +02:18,9 +00:00,1
34 51 MARIANI Anthony/PIEVE Laura Peugeot 206 Xs FA 6K 16:14,0 +02:19,0 +00:00,1
35 22 ETTORI Jean-Dominique/GUERRIERI Patrick Citroën Ds3 R 3 16:14,8 +02:19,8 +00:00,8
36 53 GHELARDINI Francois-Marie/ROCCA SERRA Laury Peugeot 206 Xs FA 6K 16:15,7 +02:20,7 +00:00,9
37 17 ALEGRE Francis/MURATI Laura BMW 325I FA 8 16:16,7 +02:21,7 +00:01,0
38 81 CLAUDE Christophe/DELATTRE Judicael Citroën C2 F2 13 16:22,7 +02:27,7 +00:06,0
39 23 AGOSTINI Quentin/BARRAL Florian Peugeot 207 Rc R 3 16:30,0 +02:35,0 +00:07,3
40 67 DE MEYER Jean-Michel/FRATTI Eric Peugeot 208 R 2 16:36,1 +02:41,1 +00:06,1
41 89 NAPOLI MELIO Michaël/BERNARDI Dominique Citroën C2 FA 6 16:38,0 +02:43,0 +00:01,9
42 55 MARTELLI Cyril/BRUN Pierre-Marie Peugeot 206 Xs FA 6K 16:41,3 +02:46,3 +00:03,3
43 80 DIFEO José/DIFEO Julien Citroën C2 F2 13 16:48,0 +02:53,0 +00:06,7
44 95 BERNOUS Bouchta/MARTINI Andrea Citroën Saxo Vts FN 2 16:48,4 +02:53,4 +00:00,4
45 30 LAUZERTE Alain/BARBE Isabelle Renault Megane N 4 16:50,1 +02:55,1 +00:01,7
46 93 MARIINI Michaël/REAL Thibaut Citroën Saxo Vts FN 2 16:57,8 +03:02,8 +00:07,7
47 98 NEGRI Jean-Michel/NEGRI Michel Peugeot 106 S16 FN 2 17:02,1 +03:07,1 +00:04,3
48 85 PERETTI Myriam/SALINI Laura Peugeot 106 FA 6 17:03,5 +03:08,5 +00:01,4
49 70 FABRA Jérémy/PONTIER Numa Renault Clio 16S FA 7 17:06,4 +03:11,4 +00:02,9
50 97 BORSELLI Charles/MANZONI Cédric Peugeot 106 FN 2 17:19,6 +03:24,6 +00:13,2
51 29 LIMELETTE Marc/PONSOT Francois-Dominique Ford Escort Cosworth FN 4 17:20,1 +03:25,1 +00:00,5
52 56 BALESTRACCI Stéphanie/CHIAPPE Patrick Peugeot 206 Xs FA 6K 17:22,1 +03:27,1 +00:02,0
53 105 NICOLI Gérard/GALTIERI Marie-Flore Citroën Ax Sport FN 1 17:30,5 +03:35,5 +00:08,4
54 45 VANGIONI Graziano/BERTIN-MAURICE Kévin Renault Clio Rs F2 14 17:39,7 +03:44,7 +00:09,2
55 28 AGOSTINI Anthony/ROYER Jérôme Renault Megane N 4 17:56,6 +04:01,6 +00:16,9
56 104 BIAGGI Florian/ESCACH Matthieu Peugeot 106 S16 N 2S 18:15,6 +04:20,6 +00:19,0
57 102 TROMBI Philippe/NICOLAI Michaël Peugeot 106 Xsi F2 12 18:27,0 +04:32,0 +00:11,4
58 44 MORGANTI Antoine/BIAGGI Yves Peugeot 205 Gti F2 14 18:31,0 +04:36,0 +00:04,0
59 50 FERRARI Cédric/LAPINA Michela Peugeot 106 S16 FA 6K 19:31,5 +05:36,5 +01:00,5
Clt Equipage Voiture Gr/Cl Temps Ecart 1er Ecart préc. Catégories
Commentaires: © PatricK Soft  
(Temps forfaitaires=couleur bleue)
Classés:59

Epreuve: Groupe: Catégorie:

 
Retour
Classement ES6-Morsiglia - Cagnano 2 (23.000 km)